Windsor, Connecticut
Current Conditions -  °F | °C
As of 9:51 AM on Saturday 22 Nov 2014 (Local Time) from KBDL Reporting Station
Broken Clouds Broken Clouds  
Wind Chill: 25°   Ceiling: 15000
Heat Index: 34°   Visibility: 10mi
Dew Point: 12°   Wind: 12mph
Humidity: 40%   Direction: 210°SSW
Pressure: 30.38"   Gusts: NA
Location:  41.85°N, 72.64°W
Report Text: KBDL 221451Z 21010KT 10SM FEW120 BKN150 BKN200 BKN250 01/M11 A3038 RMK AO2 SLP289 T00111111 58015
Loading
Personal Weather Stations






























Interactive Weather Map New forecast layout! Learn more

10-Day Weather Forecast

Advertisements
Track Severe Weather on mobile